Airfield :
LOGIN :

Register | Disclaimer

   EN    FR    IT 

 










Legend :    VFR   Marginal VFR   IFR   Intensive IFR   Very Intensive IFR
Visi :
Ceiling :
>= 8 km
>= 3000ft
5 to 8 km
1000 to 3000 ft
1500m to 5 km
500 to 1000 ft
800 to 1500m
200 to 500 ft
< 800m
< 200 ft
Symbols :   Thunderstorms  Fog  Heavy snow  Heavy precipitations  Wind > 20 kt
SIGMETs :     Misc.  Thunderstorms  Icing  Turbulence  Mountain Waves  Volcanic Ashes







- Airport Elevation : 37 ft


EHVL - Vlieland Heliport

CURRENT METAR :
  • 211155Z AUTO 32022KT 9999 FEW021 SCT048 14/09 Q1019 BLU

EXPIRED METARs :
  • 211148Z AUTO 32022KT 9999 FEW050 14/09 Q1019 BLU
  • 211135Z AUTO 32026KT 9000 -RA FEW016 SCT042 BKN046 12/09 Q1019 BLU
  • 211125Z AUTO 31027KT 9999 FEW021 SCT024 BKN031 14/08 Q1018 WHT
  • 211117Z AUTO 31027KT 9999 -RA SCT023 BKN026 BKN035 13/08 Q1018 WHT
  • 211116Z AUTO 31027KT 9999 FEW021 SCT024 BKN039 14/08 Q1018 WHT
  • 211100Z AUTO 30028KT 9999 FEW022 SCT032 15/08 Q1018 BLU
  • 211055Z AUTO 31027KT 9999 SCT021 SCT026 BKN032 14/08 Q1018 WHT
  • 211044Z AUTO 30028KT 9999 SCT020 BKN024 BKN028 14/08 Q1018 WHT
  • 211034Z AUTO 30027KT 9999 FEW020 SCT024 BKN031 15/08 Q1018 WHT
  • 211031Z AUTO 30027KT 9999 FEW020 SCT025 BKN028 14/08 Q1018 BLU
  • 211025Z AUTO 30029KT 9999 SCT020 BKN024 BKN035 13/08 Q1018 WHT
  • 210955Z AUTO 30029KT 9999 SCT025 BKN031 BKN039 14/08 Q1017 BLU
  • 210938Z AUTO 30028KT 9999 FEW024 SCT027 BKN041 14/08 Q1017 BLU
  • 210926Z AUTO 30029KT 9999 SCT023 SCT031 BKN050 13/08 Q1017 WHT
  • 210925Z AUTO 30029KT 9999 FEW023 14/08 Q1017 BLU
  • 210900Z AUTO 30030KT 9999 SCT025 BKN029 BKN036 14/08 Q1016 BLU

Expired Forecast.
No reported NOTAMs for that airfield.



MET'MAP, your aeronautical weather chart ! - Copyright ORBIFLY December 2007 - Disclaimer

ORBIFLY MET'MAP TEAM :

Programming & Development : Alexandra Zaïnal
Concept & Development : Baudouin d'Aumeries
Co-Development & Prog : Marc-Olivier Méhu
Technical & hardware support : Manuel Goepfert

Contact : metmap@orbifly.com




SOURCES & CREDITS :

   NOAA